createdAt,value
2018-06-09T01:14:01.132Z,0.1
2018-06-09T01:15:01.293Z,0.1
2018-06-09T01:16:01.103Z,0.2
2018-06-09T01:17:01.139Z,0.3
2018-06-09T01:19:01.100Z,0.4
2018-06-09T01:20:01.250Z,0.5
2018-06-09T01:22:01.134Z,0.6
2018-06-09T01:23:01.105Z,0.7
2018-06-09T01:25:01.255Z,0.8
2018-06-09T01:26:01.109Z,0.9
2018-06-09T01:29:01.111Z,1.1
2018-06-09T01:30:01.238Z,1.1
2018-06-09T01:31:01.090Z,1.2
2018-06-09T01:32:01.089Z,1.3
2018-06-09T01:33:01.115Z,1.4
2018-06-09T01:34:01.092Z,1.5
2018-06-09T01:35:01.236Z,1.7
2018-06-09T01:36:01.056Z,1.8
2018-06-09T01:37:01.094Z,2.0
2018-06-09T01:38:01.129Z,2.2
2018-06-09T01:39:01.091Z,2.5
2018-06-09T01:40:01.306Z,2.7
2018-06-09T01:41:01.090Z,3.1
2018-06-09T01:42:01.162Z,3.4
2018-06-09T01:43:01.127Z,3.8
2018-06-09T01:44:01.095Z,4.1
2018-06-09T01:45:01.238Z,4.5
2018-06-09T01:46:01.092Z,5.0
2018-06-09T01:47:01.092Z,5.5
2018-06-09T01:48:01.128Z,6.1
2018-06-09T01:49:01.090Z,6.7
2018-06-09T01:50:01.242Z,7.3
2018-06-09T01:51:01.093Z,8.1
2018-06-09T01:52:01.096Z,8.9
2018-06-09T01:53:01.123Z,9.7
2018-06-09T01:54:01.098Z,10.7
2018-06-09T01:55:01.241Z,11.7
2018-06-09T01:56:01.063Z,12.9
2018-06-09T01:57:01.097Z,14.2
2018-06-09T01:58:01.133Z,15.6
2018-06-09T01:59:01.103Z,17.2
2018-06-09T02:00:01.303Z,18.9
2018-06-09T02:01:01.067Z,20.9
2018-06-09T02:02:01.104Z,23.0
2018-06-09T02:03:01.130Z,25.3
2018-06-09T02:04:01.099Z,27.9
2018-06-09T02:05:01.268Z,30.8
2018-06-09T02:06:01.097Z,33.9
2018-06-09T02:07:01.067Z,37.4
2018-06-09T02:08:01.142Z,41.3
2018-06-09T02:09:01.064Z,45.5
2018-06-09T02:10:01.243Z,50.1
2018-06-09T02:11:01.128Z,55.1
2018-06-09T02:12:01.104Z,60.7
2018-06-09T02:13:01.064Z,66.8
2018-06-09T02:14:01.065Z,73.6
2018-06-09T02:15:01.271Z,81.1
2018-06-09T02:16:01.127Z,89.5
2018-06-09T02:17:01.101Z,98.7
2018-06-09T02:18:01.074Z,108.9
2018-06-09T02:19:01.097Z,120.3
2018-06-09T02:20:01.270Z,132.8
2018-06-09T02:21:01.099Z,146.7
2018-06-09T02:22:01.103Z,161.9
2018-06-09T02:23:01.098Z,178.9
2018-06-09T02:24:01.097Z,197.7
2018-06-09T02:25:01.273Z,218.5
2018-06-09T02:26:01.102Z,241.4
2018-06-09T02:27:01.102Z,266.7
2018-06-09T02:28:01.109Z,294.5
2018-06-09T02:29:01.107Z,324.9
2018-06-09T02:30:01.275Z,357.8
2018-06-09T02:31:01.104Z,393.1
2018-06-09T02:32:01.108Z,430.5
2018-06-09T02:33:01.099Z,470.1
2018-06-09T02:34:01.102Z,512.2
2018-06-09T02:35:01.272Z,557.1
2018-06-09T02:36:01.103Z,605.0
2018-06-09T02:37:01.103Z,656.1
2018-06-09T02:38:01.107Z,709.9
2018-06-09T02:39:01.074Z,766.4
2018-06-09T02:40:01.340Z,825.4
2018-06-09T02:42:01.093Z,892.3
2018-06-09T02:43:01.085Z,962.2
2018-06-09T02:44:01.086Z,1035.1
2018-06-09T02:45:01.138Z,1111.3
2018-06-09T02:46:01.232Z,1191.1
2018-06-09T02:47:01.088Z,1275.0
2018-06-09T02:48:01.090Z,1363.5
2018-06-09T02:49:01.057Z,1457.1
2018-06-09T02:50:01.112Z,1555.7
2018-06-09T02:51:02.326Z,1659.7
2018-06-09T02:52:01.092Z,1769.1
2018-06-09T02:53:01.099Z,1885.1
2018-06-09T02:54:01.119Z,2008.8
2018-06-09T02:55:01.095Z,2141.2
2018-06-09T02:56:01.236Z,2282.5
2018-06-09T02:57:01.061Z,2427.5
2018-06-09T02:58:01.127Z,2581.4
2018-06-09T02:59:01.125Z,2743.9
2018-06-09T03:00:01.099Z,2914.7
2018-06-09T03:01:01.238Z,3093.3
2018-06-09T03:02:01.095Z,3279.4
2018-06-09T03:03:01.062Z,3472.2
2018-06-09T03:04:01.124Z,3669.9
2018-06-09T03:05:01.097Z,3870.5
2018-06-09T03:06:01.241Z,4072.0
2018-06-09T03:07:01.096Z,4273.7
2018-06-09T03:08:01.105Z,4476.1
2018-06-09T03:09:01.125Z,4680.2
2018-06-09T03:10:01.096Z,4887.0
2018-06-09T03:11:01.244Z,5098.1
2018-06-09T03:12:01.097Z,5314.5
2018-06-09T03:13:01.099Z,5536.0
2018-06-09T03:14:01.129Z,5762.1
2018-06-09T03:15:01.107Z,5992.3
2018-06-09T03:16:01.279Z,6228.5
2018-06-09T03:17:01.103Z,6471.6
2018-06-09T03:18:01.105Z,6724.0
2018-06-09T03:19:01.131Z,6988.7
2018-06-09T03:20:01.108Z,7269.6
2018-06-09T03:21:01.248Z,7566.1
2018-06-09T03:22:01.107Z,7874.3
2018-06-09T03:24:01.115Z,8208.1
2018-06-09T03:25:01.087Z,8550.9
2018-06-09T03:26:01.237Z,8901.7
2018-06-09T03:27:01.093Z,9259.3
2018-06-09T03:28:01.126Z,9618.9
2018-06-09T03:29:01.091Z,9977.4
2018-06-09T03:30:01.092Z,10335.2
2018-06-09T03:31:01.232Z,10697.3
2018-06-09T03:32:01.060Z,11067.7
2018-06-09T03:33:01.122Z,11450.8
2018-06-09T03:34:01.058Z,11841.7
2018-06-09T03:35:01.093Z,12236.0
2018-06-09T03:36:01.244Z,12639.3
2018-06-09T03:37:01.057Z,13041.3
2018-06-09T03:38:01.116Z,13440.8
2018-06-09T03:39:01.094Z,13825.5
2018-06-09T03:40:01.102Z,14210.2
2018-06-09T03:41:01.238Z,14598.5
2018-06-09T03:42:01.096Z,14993.6
2018-06-09T03:43:01.122Z,15402.3
2018-06-09T03:44:01.061Z,15830.1
2018-06-09T03:45:01.101Z,16281.9
2018-06-09T03:46:01.243Z,16752.9
2018-06-09T03:47:01.097Z,17240.1
2018-06-09T03:48:01.122Z,17743.9
2018-06-09T03:49:01.099Z,18269.6
2018-06-09T03:50:01.095Z,18817.3
2018-06-09T03:51:01.238Z,19380.2
2018-06-09T03:52:01.124Z,19974.9
2018-06-09T03:53:01.120Z,20598.5
2018-06-09T03:54:01.161Z,21231.0
2018-06-09T03:55:01.065Z,21864.5
2018-06-09T03:56:01.242Z,22495.9
2018-06-09T03:57:01.122Z,23132.2
2018-06-09T03:58:01.097Z,23778.7
2018-06-09T03:59:01.066Z,24428.7
2018-06-09T04:00:01.100Z,25069.1
2018-06-09T04:01:01.248Z,25683.8
2018-06-09T04:02:01.133Z,26253.8
2018-06-09T04:03:01.106Z,26775.0
2018-06-09T04:04:01.098Z,27268.7
2018-06-09T04:05:01.066Z,27740.5
2018-06-09T04:06:01.244Z,28173.7
2018-06-09T04:07:01.130Z,28566.1
2018-06-09T04:08:01.100Z,28915.0
2018-06-09T04:09:01.105Z,29261.7
2018-06-09T04:10:01.076Z,29604.4
2018-06-09T04:11:01.282Z,29953.3
2018-06-09T04:12:01.109Z,30321.0
2018-06-09T04:13:01.108Z,30724.6
2018-06-09T04:14:01.107Z,31177.9
2018-06-09T04:15:01.106Z,31703.3
2018-06-09T04:16:01.329Z,32294.6
2018-06-09T04:17:01.088Z,32947.8
2018-06-09T04:18:01.107Z,33649.7
2018-06-09T04:20:01.059Z,34416.1
2018-06-09T04:21:01.265Z,35219.0
2018-06-09T04:22:01.058Z,36094.4
2018-06-09T04:23:01.058Z,37040.4
2018-06-09T04:24:01.089Z,38072.0
2018-06-09T04:25:01.056Z,39171.3
2018-06-09T04:26:01.335Z,40352.5
2018-06-09T04:27:01.057Z,41613.1
2018-06-09T04:28:01.058Z,42916.3
2018-06-09T04:29:01.095Z,44208.9
2018-06-09T04:30:01.094Z,45473.3
2018-06-09T04:31:01.332Z,46706.7
2018-06-09T04:32:01.093Z,47937.0
2018-06-09T04:33:01.091Z,49176.2
2018-06-09T04:34:01.072Z,50412.4
2018-06-09T04:35:01.090Z,51587.4
2018-06-09T04:36:01.276Z,52723.9
2018-06-09T04:37:01.104Z,53815.7
2018-06-09T04:38:01.096Z,54876.3
2018-06-09T04:39:01.098Z,55902.4
2018-06-09T04:40:01.126Z,56855.7
2018-06-09T04:41:01.275Z,57757.7
2018-06-09T04:42:01.101Z,58602.5
2018-06-09T04:43:01.103Z,59465.5
2018-06-09T04:44:01.100Z,60265.7
2018-06-09T04:45:01.099Z,61002.8
2018-06-09T04:46:01.407Z,61665.6
2018-06-09T04:47:01.066Z,62248.8
2018-06-09T04:48:01.101Z,62760.5
2018-06-09T04:49:01.102Z,63224.1
2018-06-09T04:50:01.098Z,63658.2
2018-06-09T04:51:01.271Z,64065.1
2018-06-09T04:52:01.101Z,64430.6
2018-06-09T04:53:01.102Z,64740.7
2018-06-09T04:54:01.069Z,64994.8
2018-06-09T04:55:01.099Z,65224.2
2018-06-09T04:56:01.284Z,65402.9
2018-06-09T04:57:01.072Z,65527.1
2018-06-09T04:58:01.108Z,65535.0
2018-06-09T05:00:01.102Z,65535.0
2018-06-09T05:15:01.106Z,65535.0
2018-06-09T05:30:01.119Z,65535.0
2018-06-09T05:45:01.246Z,65535.0
2018-06-09T06:00:01.376Z,65535.0
2018-06-09T06:15:01.129Z,65535.0
2018-06-09T06:30:01.137Z,65535.0
2018-06-09T06:45:01.162Z,65535.0
2018-06-09T07:00:01.189Z,65535.0
2018-06-09T07:15:01.071Z,65535.0
2018-06-09T07:30:01.077Z,65535.0
2018-06-09T07:45:01.112Z,65535.0
2018-06-09T08:00:01.091Z,65535.0
2018-06-09T08:15:01.307Z,65535.0
2018-06-09T08:30:01.101Z,65535.0
2018-06-09T08:45:01.071Z,65535.0
2018-06-09T09:00:01.138Z,65535.0
2018-06-09T09:15:01.350Z,65535.0
2018-06-09T09:30:01.065Z,65535.0
2018-06-09T09:45:01.063Z,65535.0
2018-06-09T09:53:01.275Z,65517.3
2018-06-09T09:54:01.066Z,65439.9
2018-06-09T09:55:01.099Z,65336.0
2018-06-09T09:56:01.100Z,65213.1
2018-06-09T09:57:01.100Z,65094.6
2018-06-09T09:58:01.277Z,65031.3
2018-06-09T10:00:01.106Z,65031.3
2018-06-09T10:08:01.334Z,65049.0
2018-06-09T10:10:01.051Z,65126.4
2018-06-09T10:11:01.050Z,65230.3
2018-06-09T10:12:01.049Z,65353.3
2018-06-09T10:13:01.087Z,65471.7
2018-06-09T10:14:06.226Z,65535.0
2018-06-09T10:15:01.083Z,65535.0
2018-06-09T10:30:01.101Z,65535.0
2018-06-09T10:45:01.265Z,65535.0
2018-06-09T11:00:01.052Z,65535.0
2018-06-09T11:15:01.096Z,65535.0
2018-06-09T11:30:01.104Z,65535.0
2018-06-09T11:45:01.313Z,65535.0
2018-06-09T12:00:01.088Z,65535.0
2018-06-09T12:15:01.167Z,65535.0
2018-06-09T12:30:01.143Z,65535.0
2018-06-09T12:46:01.249Z,65535.0
2018-06-09T13:00:06.370Z,65535.0
2018-06-09T13:15:01.291Z,65535.0
2018-06-09T13:30:01.380Z,65535.0
2018-06-09T13:45:01.270Z,65535.0
2018-06-09T14:00:01.134Z,65535.0
2018-06-09T14:15:01.153Z,65535.0
2018-06-09T14:30:06.335Z,65535.0
2018-06-09T14:45:01.320Z,65535.0
2018-06-09T15:00:01.396Z,65535.0
2018-06-09T15:15:01.106Z,65535.0
2018-06-09T15:30:01.063Z,65535.0
2018-06-09T15:45:01.131Z,65535.0
2018-06-09T16:00:01.408Z,65535.0
2018-06-09T16:15:01.339Z,65535.0
2018-06-09T16:30:01.355Z,65535.0
2018-06-09T16:45:01.267Z,65535.0
2018-06-09T17:00:06.309Z,65535.0
2018-06-09T17:15:01.417Z,65535.0
2018-06-09T17:26:01.312Z,65419.2
2018-06-09T17:27:01.105Z,65226.8
2018-06-09T17:28:01.105Z,64977.5
2018-06-09T17:29:01.110Z,64675.7
2018-06-09T17:30:01.136Z,64319.5
2018-06-09T17:31:01.315Z,63897.7
2018-06-09T17:32:01.104Z,63397.1
2018-06-09T17:33:01.105Z,62800.7
2018-06-09T17:34:01.105Z,62101.4
2018-06-09T17:35:01.108Z,61304.5
2018-06-09T17:36:01.511Z,60424.5
2018-06-09T17:37:01.109Z,59485.1
2018-06-09T17:38:01.072Z,58511.1
2018-06-09T17:39:01.105Z,57522.1
2018-06-09T17:41:01.236Z,56534.1
2018-06-09T17:42:01.060Z,55662.5
2018-06-09T17:43:01.088Z,54858.0
2018-06-09T17:44:01.183Z,54081.3
2018-06-09T17:45:01.093Z,53313.4
2018-06-09T17:46:01.236Z,52539.5
2018-06-09T17:47:01.055Z,51757.5
2018-06-09T17:48:01.093Z,50976.9
2018-06-09T17:49:01.056Z,50217.0
2018-06-09T17:50:01.095Z,49494.1
2018-06-09T17:51:01.292Z,48807.5
2018-06-09T17:52:01.104Z,48151.1
2018-06-09T17:53:01.093Z,47518.6
2018-06-09T17:54:01.064Z,46900.4
2018-06-09T17:55:01.072Z,46288.7
2018-06-09T17:56:01.243Z,45669.6
2018-06-09T17:57:01.094Z,45032.4
2018-06-09T17:58:01.095Z,44378.2
2018-06-09T17:59:01.093Z,43720.5
2018-06-09T18:00:01.102Z,43079.1
2018-06-09T18:01:01.248Z,42475.8
2018-06-09T18:02:01.104Z,41923.0
2018-06-09T18:03:01.092Z,41430.8
2018-06-09T18:04:01.126Z,41006.3
2018-06-09T18:05:01.096Z,40649.6
2018-06-09T18:06:01.237Z,40360.1
2018-06-09T18:07:01.178Z,40126.9
2018-06-09T18:08:01.095Z,39918.9
2018-06-09T18:09:01.129Z,39702.2
2018-06-09T18:10:01.094Z,39449.8
2018-06-09T18:11:01.244Z,39148.9
2018-06-09T18:12:01.097Z,38807.4
2018-06-09T18:13:01.062Z,38443.5
2018-06-09T18:14:01.131Z,38076.9
2018-06-09T18:15:01.070Z,37716.1
2018-06-09T18:16:01.263Z,37363.7
2018-06-09T18:17:01.076Z,37018.7
2018-06-09T18:18:01.069Z,36667.5
2018-06-09T18:19:01.130Z,36286.4
2018-06-09T18:20:01.065Z,35851.3
2018-06-09T18:21:01.244Z,35346.6
2018-06-09T18:22:01.100Z,34775.5
2018-06-09T18:23:01.069Z,34157.7
2018-06-09T18:24:01.122Z,33523.3
2018-06-09T18:25:01.066Z,32900.3
2018-06-09T18:26:01.499Z,32310.6
2018-06-09T18:27:01.098Z,31762.8
2018-06-09T18:28:01.077Z,31243.5
2018-06-09T18:29:01.121Z,30730.5
2018-06-09T18:30:01.064Z,30207.6
2018-06-09T18:31:01.214Z,29665.6
2018-06-09T18:32:01.097Z,29103.7
2018-06-09T18:33:01.099Z,28529.2
2018-06-09T18:34:01.181Z,27956.3
2018-06-09T18:35:01.104Z,27400.0
2018-06-09T18:36:01.276Z,26870.9
2018-06-09T18:37:01.102Z,26366.3
2018-06-09T18:38:01.074Z,25884.3
2018-06-09T18:39:01.103Z,25418.7
2018-06-09T18:40:01.101Z,24955.4
2018-06-09T18:41:01.319Z,24482.1
2018-06-09T18:42:01.106Z,23993.7
2018-06-09T18:43:01.101Z,23491.5
2018-06-09T18:44:01.103Z,22982.1
2018-06-09T18:45:01.108Z,22470.1
2018-06-09T18:46:01.283Z,21958.7
2018-06-09T18:47:01.073Z,21449.9
2018-06-09T18:48:01.074Z,20938.8
2018-06-09T18:50:01.087Z,20375.4
2018-06-09T18:51:01.265Z,19798.9
2018-06-09T18:52:01.088Z,19204.6
2018-06-09T18:53:01.092Z,18593.3
2018-06-09T18:54:01.052Z,17963.7
2018-06-09T18:55:01.089Z,17319.1
2018-06-09T18:56:01.316Z,16666.0
2018-06-09T18:57:01.088Z,16013.5
2018-06-09T18:58:01.091Z,15368.4
2018-06-09T18:59:01.088Z,14739.4
2018-06-09T19:00:01.055Z,14133.0
2018-06-09T19:01:01.266Z,13552.1
2018-06-09T19:02:01.092Z,12997.5
2018-06-09T19:03:01.093Z,12470.3
2018-06-09T19:04:01.136Z,11976.6
2018-06-09T19:05:01.096Z,11566.7
2018-06-09T19:06:01.264Z,11199.8
2018-06-09T19:07:01.092Z,10879.8
2018-06-09T19:08:01.130Z,10605.9
2018-06-09T19:09:01.097Z,10374.3
2018-06-09T19:10:01.096Z,10174.9
2018-06-09T19:11:01.302Z,10000.5
2018-06-09T19:12:01.096Z,9842.5
2018-06-09T19:13:01.126Z,9692.4
2018-06-09T19:14:01.095Z,9543.6
2018-06-09T19:15:01.102Z,9391.3
2018-06-09T19:16:01.268Z,9230.7
2018-06-09T19:17:01.097Z,9060.2
2018-06-09T19:18:01.132Z,8881.0
2018-06-09T19:19:01.067Z,8693.3
2018-06-09T19:20:01.097Z,8496.6
2018-06-09T19:21:01.240Z,8292.7
2018-06-09T19:22:01.175Z,8081.5
2018-06-09T19:23:01.124Z,7863.9
2018-06-09T19:24:01.097Z,7641.3
2018-06-09T19:25:01.121Z,7416.7
2018-06-09T19:26:01.244Z,7192.2
2018-06-09T19:27:01.065Z,6969.5
2018-06-09T19:28:01.119Z,6749.7
2018-06-09T19:29:01.103Z,6534.9
2018-06-09T19:30:01.140Z,6325.8
2018-06-09T19:31:01.253Z,6122.3
2018-06-09T19:32:01.104Z,5922.8
2018-06-09T19:33:01.104Z,5725.5
2018-06-09T19:34:01.101Z,5529.1
2018-06-09T19:35:01.141Z,5333.1
2018-06-09T19:36:01.243Z,5137.2
2018-06-09T19:37:01.099Z,4942.3
2018-06-09T19:38:01.107Z,4748.9
2018-06-09T19:39:01.104Z,4557.0
2018-06-09T19:40:01.141Z,4367.1
2018-06-09T19:42:01.234Z,4170.1
2018-06-09T19:43:01.090Z,3977.4
2018-06-09T19:44:01.091Z,3789.4
2018-06-09T19:45:01.126Z,3604.9
2018-06-09T19:46:01.090Z,3423.7
2018-06-09T19:47:01.230Z,3245.5
2018-06-09T19:48:01.053Z,3070.9
2018-06-09T19:49:01.056Z,2900.8
2018-06-09T19:50:01.088Z,2735.4
2018-06-09T19:51:01.097Z,2575.5
2018-06-09T19:52:01.257Z,2422.2
2018-06-09T19:53:01.088Z,2276.5
2018-06-09T19:54:01.096Z,2139.5
2018-06-09T19:55:01.096Z,2011.3
2018-06-09T19:56:01.126Z,1890.9
2018-06-09T19:57:01.238Z,1786.6
2018-06-09T19:58:01.093Z,1686.7
2018-06-09T19:59:01.101Z,1590.6
2018-06-09T20:00:01.098Z,1498.3
2018-06-09T20:01:01.136Z,1409.8
2018-06-09T20:02:01.315Z,1325.5
2018-06-09T20:03:01.100Z,1245.5
2018-06-09T20:04:01.093Z,1169.5
2018-06-09T20:05:01.093Z,1097.5
2018-06-09T20:06:01.148Z,1029.4
2018-06-09T20:07:01.238Z,964.7
2018-06-09T20:08:01.096Z,903.1
2018-06-09T20:09:01.098Z,844.2
2018-06-09T20:10:01.099Z,787.5
2018-06-09T20:11:01.139Z,733.1
2018-06-09T20:12:01.236Z,680.7
2018-06-09T20:13:01.100Z,630.5
2018-06-09T20:14:01.096Z,582.7
2018-06-09T20:15:01.124Z,537.5
2018-06-09T20:16:01.122Z,495.2
2018-06-09T20:17:01.267Z,455.7
2018-06-09T20:18:01.134Z,418.8
2018-06-09T20:19:01.101Z,384.3
2018-06-09T20:20:01.123Z,352.1
2018-06-09T20:21:01.064Z,322.0
2018-06-09T20:22:01.239Z,293.9
2018-06-09T20:23:01.102Z,267.7
2018-06-09T20:24:01.130Z,243.5
2018-06-09T20:25:01.067Z,221.1
2018-06-09T20:26:01.101Z,200.7
2018-06-09T20:27:01.260Z,181.9
2018-06-09T20:28:01.071Z,164.8
2018-06-09T20:29:01.147Z,149.1
2018-06-09T20:31:01.089Z,134.4
2018-06-09T20:32:01.235Z,120.9
2018-06-09T20:33:01.087Z,108.4
2018-06-09T20:34:01.109Z,96.9
2018-06-09T20:35:01.055Z,86.5
2018-06-09T20:36:01.055Z,76.9
2018-06-09T20:37:01.248Z,68.3
2018-06-09T20:38:01.088Z,60.4
2018-06-09T20:39:01.123Z,53.4
2018-06-09T20:40:01.092Z,47.1
2018-06-09T20:41:01.088Z,41.5
2018-06-09T20:42:01.209Z,36.5
2018-06-09T20:43:01.089Z,31.9
2018-06-09T20:44:01.111Z,27.9
2018-06-09T20:45:01.087Z,24.4
2018-06-09T20:46:01.098Z,21.7
2018-06-09T20:47:01.237Z,19.3
2018-06-09T20:48:01.111Z,17.1
2018-06-09T20:49:01.089Z,15.3
2018-06-09T20:50:01.063Z,13.7
2018-06-09T20:51:01.090Z,12.3
2018-06-09T20:52:01.233Z,11.1
2018-06-09T20:53:01.118Z,10.0
2018-06-09T20:54:01.091Z,9.0
2018-06-09T20:55:01.089Z,8.1
2018-06-09T20:56:01.057Z,7.4
2018-06-09T20:57:01.235Z,6.7
2018-06-09T20:58:01.118Z,6.1
2018-06-09T20:59:01.055Z,5.6
2018-06-09T21:00:01.090Z,5.1
2018-06-09T21:01:01.056Z,4.6
2018-06-09T21:02:01.233Z,4.2
2018-06-09T21:03:01.125Z,3.9
2018-06-09T21:04:01.097Z,3.5
2018-06-09T21:05:01.096Z,3.3
2018-06-09T21:06:01.142Z,2.9
2018-06-09T21:07:01.238Z,2.7
2018-06-09T21:08:01.124Z,2.4
2018-06-09T21:09:01.094Z,2.2
2018-06-09T21:10:01.097Z,2.0
2018-06-09T21:11:01.094Z,1.8
2018-06-09T21:12:01.243Z,1.7
2018-06-09T21:13:01.120Z,1.5
2018-06-09T21:14:01.097Z,1.4
2018-06-09T21:15:01.135Z,1.3
2018-06-09T21:17:01.343Z,1.2
2018-06-09T21:18:01.093Z,1.1
2018-06-09T21:20:01.218Z,0.9
2018-06-09T21:22:01.240Z,0.8
2018-06-09T21:23:01.098Z,0.7
2018-06-09T21:25:01.125Z,0.6
2018-06-09T21:26:01.097Z,0.5
2018-06-09T21:28:01.096Z,0.4
2018-06-09T21:29:01.096Z,0.3
2018-06-09T21:30:01.133Z,0.3
2018-06-09T21:31:01.064Z,0.2
2018-06-09T21:32:01.238Z,0.1
